ADDS METAR Data INFO
IDs: Format: Raw Decoded Include TAF

Data at: 0114 UTC 21 Oct 2017

KJTC 210055Z AUTO 20012G17KT 10SM CLR 16/M02 A2996 RMK AO2
KJTC 210035Z AUTO 20015KT 10SM CLR 17/M03 A2997 RMK AO2
KJTC 210015Z AUTO 21014G20KT 10SM CLR 18/M03 A2997 RMK AO2
KJTC 202355Z AUTO 21015G24KT 10SM VCTS CLR 18/M04 A2997 RMK AO2 LTG DSNT E-SW
KJTC 202335Z AUTO 24015G23KT 10SM CLR 19/M05 A2998 RMK AO2
KJTC 202315Z AUTO 23022G30KT 10SM CLR 20/M05 A2995 RMK AO2
KJTC 202255Z AUTO 23021G32KT 10SM CLR 20/M04 A2995 RMK AO2
KJTC 202235Z AUTO 23024G31KT 10SM CLR 21/M05 A2994 RMK AO2
KJTC 202215Z AUTO 22022G37KT 10SM CLR 21/M04 A2994 RMK AO2
KJTC 202155Z AUTO 23025G40KT 10SM CLR 21/M04 A2994 RMK AO2
KJTC 202135Z AUTO 23031G40KT 10SM CLR 22/M05 A2995 RMK AO2
KJTC 202115Z AUTO 24029G38KT 10SM CLR 22/M05 A2997 RMK AO2
KJTC 202055Z AUTO 24023G36KT 10SM CLR 22/M05 A2998 RMK AO2
KJTC 202035Z AUTO 24025G32KT 10SM CLR 22/M05 A2999 RMK AO2
KJTC 202015Z AUTO 25022G34KT 10SM CLR 22/M05 A3000 RMK AO2
KJTC 201955Z AUTO 25026G35KT 10SM VCTS CLR 22/M06 A3001 RMK AO2 LTG DSNT E-SW
KJTC 201935Z AUTO 25015G30KT 220V280 10SM CLR 22/M06 A3001 RMK AO2
KJTC 201915Z AUTO 22011G28KT 190V250 10SM CLR 22/M05 A3002 RMK AO2
KJTC 201855Z AUTO 21012G27KT 10SM CLR 22/M05 A3003 RMK AO2
KJTC 201835Z AUTO 23014G21KT 10SM CLR 22/M05 A3004 RMK AO2
KJTC 201815Z AUTO 23007G16KT 10SM VCTS CLR 21/M06 A3004 RMK AO2 LTG DSNT E-SW
KJTC 201755Z AUTO 25013G20KT 10SM VCTS CLR 21/M04 A3005 RMK AO2 LTG DSNT E-SW
KJTC 201735Z AUTO 20013G19KT 10SM CLR 21/M04 A3006 RMK AO2
KJTC 201715Z AUTO 25012G22KT 190V280 10SM CLR 20/M04 A3007 RMK AO2
KJTC 201655Z AUTO 22012G18KT 10SM CLR 20/M04 A3007 RMK AO2
KJTC 201635Z AUTO 20016G22KT 10SM CLR 19/M03 A3008 RMK AO2
KJTC 201615Z AUTO 20019G24KT 10SM CLR 18/M02 A3007 RMK AO2
KJTC 201555Z AUTO 20021G28KT 10SM CLR 18/M00 A3007 RMK AO2
KJTC 201535Z AUTO 21018G26KT 10SM VCTS CLR 17/M00 A3007 RMK AO2 LTG DSNT E-SW
KJTC 201515Z AUTO 22023G29KT 10SM CLR 16/00 A3007 RMK AO2
KJTC 201455Z AUTO 22026G34KT 10SM CLR 16/00 A3006 RMK AO2
KJTC 201435Z AUTO 22025G31KT 10SM CLR 15/M00 A3004 RMK AO2
KJTC 201415Z AUTO 22022G32KT 10SM CLR 14/M00 A3004 RMK AO2
KJTC 201355Z AUTO 22009KT 10SM CLR 12/M00 A3004 RMK AO2
KJTC 201335Z AUTO 19010KT 10SM CLR 11/00 A3005 RMK AO2
KJTC 201315Z AUTO 18010G18KT 10SM CLR 12/00 A3005 RMK AO2
KJTC 201255Z AUTO 22005KT 10SM CLR 12/00 A3006 RMK AO2
KJTC 201235Z AUTO 09007KT 10SM VCTS CLR 11/00 A3007 RMK AO2 LTG DSNT E-SW
KJTC 201215Z AUTO 14005KT 10SM CLR 11/00 A3007 RMK AO2
KJTC 201155Z AUTO 12007KT 10SM CLR 11/00 A3006 RMK AO2
KJTC 201135Z AUTO 08005KT 10SM VCTS CLR 10/01 A3007 RMK AO2 LTG DSNT E-SW
KJTC 201115Z AUTO 08007KT 10SM CLR 09/01 A3007 RMK AO2
KJTC 201055Z AUTO 10004KT 10SM CLR 09/01 A3007 RMK AO2
KJTC 201035Z AUTO 13006KT 10SM CLR 09/01 A3008 RMK AO2
KJTC 201015Z AUTO 17007G17KT 10SM CLR 12/01 A3007 RMK AO2
KJTC 200955Z AUTO 17009KT 10SM CLR 11/01 A3008 RMK AO2
KJTC 200935Z AUTO 16007KT 10SM CLR 10/01 A3009 RMK AO2
KJTC 200915Z AUTO 20007KT 10SM CLR 07/M00 A3010 RMK AO2
KJTC 200855Z AUTO VRB05KT 10SM CLR 06/M01 A3011 RMK AO2
KJTC 200835Z AUTO 21003KT 10SM CLR 07/M01 A3012 RMK AO2
KJTC 200815Z AUTO 00000KT 10SM CLR 07/M00 A3012 RMK AO2
KJTC 200755Z AUTO 00000KT 5SM HZ CLR 06/M01 A3012 RMK AO2
KJTC 200735Z AUTO 20008KT 3SM HZ CLR 05/M01 A3013 RMK AO2
KJTC 200715Z AUTO 21007KT 8SM CLR 05/M01 A3013 RMK AO2
KJTC 200655Z AUTO 00000KT 10SM CLR 07/M00 A3014 RMK AO2
KJTC 200635Z AUTO 00000KT 10SM CLR 08/M00 A3014 RMK AO2
KJTC 200615Z AUTO 19006KT 10SM CLR 07/M01 A3015 RMK AO2
KJTC 200555Z AUTO 21007KT 5SM HZ CLR 06/M01 A3015 RMK AO2
KJTC 200535Z AUTO 23009KT 7SM FEW080 08/M00 A3015 RMK AO2
KJTC 200515Z AUTO 22010KT 10SM SCT080 09/M00 A3015 RMK AO2
KJTC 200455Z AUTO 22009KT 7SM VCTS SCT085 08/M00 A3015 RMK AO2 LTG DSNT E-SW
KJTC 200435Z AUTO 22007KT 6SM HZ FEW085 08/M00 A3015 RMK AO2
KJTC 200415Z AUTO 22006KT 10SM CLR 07/M01 A3015 RMK AO2
KJTC 200355Z AUTO 20006KT 7SM CLR 08/M01 A3015 RMK AO2
KJTC 200335Z AUTO 22007KT 6SM HZ CLR 09/M00 A3015 RMK AO2
KJTC 200315Z AUTO 21006KT 10SM CLR 09/M00 A3014 RMK AO2
KJTC 200255Z AUTO 19007KT 10SM CLR 10/00 A3015 RMK AO2
KJTC 200235Z AUTO 20006KT 10SM CLR 10/00 A3014 RMK AO2
KJTC 200215Z AUTO 19005KT 10SM CLR 11/00 A3014 RMK AO2
KJTC 200155Z AUTO 18008KT 10SM CLR 13/00 A3014 RMK AO2
KJTC 200135Z AUTO 00000KT 10SM VCTS FEW080 14/00 A3014 RMK AO2 LTG DSNT E-SW
KJTC 200115Z AUTO 00000KT 10SM BKN080 15/M00 A3013 RMK AO2
KJTC 200055Z AUTO 25004KT 10SM FEW085 15/M00 A3013 RMK AO2
KJTC 200035Z AUTO 28005KT 10SM CLR 17/00 A3012 RMK AO2
KJTC 200015Z AUTO 24010KT 10SM CLR 19/00 A3012 RMK AO2
KJTC 192355Z AUTO 22010G15KT 10SM CLR 19/00 A3012 RMK AO2
KJTC 192335Z AUTO 23008G14KT 10SM CLR 18/01 A3012 RMK AO2
KJTC 192315Z AUTO 21014G24KT 10SM CLR 18/01 A3012 RMK AO2 LTG DSNT SE
KJTC 192255Z AUTO 21016G22KT 10SM VCTS FEW100 18/00 A3013 RMK AO2 LTG DSNT E-SW
KJTC 192235Z AUTO 23019KT 10SM FEW060 FEW070 SCT110 17/03 A3015 RMK AO2
KJTC 192215Z AUTO 24018G27KT 10SM FEW070 SCT110 15/03 A3015 RMK AO2 LTG DSNT S
KJTC 192155Z AUTO 25030G41KT 10SM SCT095 BKN120 15/03 A3017 RMK AO2 LTG DSNT E-S
KJTC 192135Z AUTO 26026G36KT 10SM FEW100 FEW120 17/03 A3016 RMK AO2 LTG DSNT E
KJTC 192115Z AUTO 26027KT 10SM CLR 18/02 A3015 RMK AO2 LTG DSNT NE
KJTC 192055Z AUTO 26018G28KT 10SM SCT110 22/01 A3014 RMK AO2 LTG DSNT E AND SE
KJTC 192035Z AUTO 25019KT 10SM BKN110 23/M00 A3014 RMK AO2
KJTC 192015Z AUTO 26017G24KT 10SM VCTS BKN100 BKN120 21/M00 A3015 RMK AO2 LTG DSNT E AND SE
KJTC 191955Z AUTO 26019G28KT 10SM VCTS SCT095 SCT120 22/M01 A3015 RMK AO2 LTG DSNT NE AND E
KJTC 191935Z AUTO 26016G23KT 10SM FEW041 SCT085 BKN100 22/M00 A3015 RMK AO2 LTG DSNT E AND SE
KJTC 191915Z AUTO 27010G15KT 8SM VCTS RA FEW036 FEW048 OVC080 19/05 A3016 RMK AO2 LTG DSNT NE-SE
KJTC 191855Z AUTO 32006KT 10SM VCTS OVC080 21/M00 A3017 RMK AO2 LTG DSNT ALQDS
KJTC 191835Z AUTO 34013KT 10SM OVC090 21/M01 A3017 RMK AO2
KJTC 191815Z AUTO 28005G13KT 10SM OVC090 22/M02 A3017 RMK AO2
KJTC 191755Z AUTO 16011G16KT 10SM FEW055 FEW075 BKN100 22/M02 A3018 RMK AO2
KJTC 191735Z AUTO 17009KT 10SM FEW055 BKN110 21/M03 A3019 RMK AO2
KJTC 191715Z AUTO 15004KT 10SM FEW041 FEW050 SCT110 21/M01 A3020 RMK AO2
KJTC 191655Z AUTO 14005KT 10SM SCT110 20/M01 A3020 RMK AO2
KJTC 191635Z AUTO 00000KT 10SM SCT100 SCT120 19/M02 A3021 RMK AO2
KJTC 191615Z AUTO 00000KT 10SM FEW085 SCT110 18/M01 A3021 RMK AO2
KJTC 191555Z AUTO 00000KT 10SM FEW090 SCT120 17/M01 A3022 RMK AO2
KJTC 191535Z AUTO 00000KT 10SM CLR 17/M01 A3022 RMK AO2
KJTC 191515Z AUTO 00000KT 10SM VCTS FEW110 16/M01 A3022 RMK AO2 LTG DSNT E-SW
KJTC 191455Z AUTO 23006KT 10SM FEW110 14/M02 A3022 RMK AO2
KJTC 191435Z AUTO 22005KT 10SM CLR 12/M02 A3022 RMK AO2
KJTC 191415Z AUTO 00000KT 10SM FEW090 11/M02 A3021 RMK AO2
KJTC 191355Z AUTO 00000KT 10SM SCT100 11/M02 A3021 RMK AO2
KJTC 191335Z AUTO VRB04KT 10SM BKN100 OVC120 12/M01 A3021 RMK AO2
KJTC 191315Z AUTO 23006KT 10SM OVC100 12/M01 A3021 RMK AO2